createdAt,value
2022-08-24T00:00:11.082Z,8.13
2022-08-24T00:05:35.870Z,8.13
2022-08-24T00:11:03.631Z,9.48
2022-08-24T00:16:29.623Z,9.63
2022-08-24T00:21:52.736Z,9.08
2022-08-24T00:27:16.872Z,9.35
2022-08-24T00:32:40.675Z,9.45
2022-08-24T00:38:04.888Z,9.33
2022-08-24T00:43:31.137Z,9.63
2022-08-24T00:48:58.825Z,9.88
2022-08-24T00:54:25.276Z,9.43
2022-08-24T00:59:55.746Z,9.20
2022-08-24T01:05:22.172Z,9.53
2022-08-24T01:10:51.718Z,9.35
2022-08-24T01:21:58.063Z,9.73
2022-08-24T01:27:27.990Z,10.15
2022-08-24T01:32:49.603Z,10.32
2022-08-24T01:38:16.190Z,10.85
2022-08-24T01:43:38.632Z,12.65
2022-08-24T01:49:03.024Z,13.22
2022-08-24T01:54:27.754Z,14.18
2022-08-24T01:59:50.726Z,15.53
2022-08-24T02:05:13.821Z,15.25
2022-08-24T02:10:36.444Z,14.43
2022-08-24T02:16:01.455Z,14.47
2022-08-24T02:21:25.005Z,14.68
2022-08-24T02:26:48.077Z,16.23
2022-08-24T02:32:12.941Z,16.27
2022-08-24T02:37:35.833Z,14.00
2022-08-24T02:43:00.266Z,15.32
2022-08-24T02:48:24.156Z,14.87
2022-08-24T02:53:46.923Z,14.53
2022-08-24T02:59:12.820Z,15.00
2022-08-24T03:04:37.678Z,14.00
2022-08-24T03:10:00.314Z,13.58
2022-08-24T03:15:25.420Z,13.43
2022-08-24T03:20:48.949Z,13.35
2022-08-24T03:26:11.438Z,12.85
2022-08-24T03:31:40.377Z,13.32
2022-08-24T03:37:03.031Z,13.70
2022-08-24T03:42:25.474Z,13.03
2022-08-24T03:47:48.241Z,14.05
2022-08-24T03:53:11.723Z,14.33
2022-08-24T03:58:34.074Z,14.45
2022-08-24T04:03:59.479Z,14.87
2022-08-24T04:09:24.133Z,14.98
2022-08-24T04:14:47.024Z,14.50
2022-08-24T04:20:09.440Z,15.70
2022-08-24T04:25:32.653Z,16.20
2022-08-24T04:30:57.329Z,15.78
2022-08-24T04:36:21.398Z,15.45
2022-08-24T04:41:44.673Z,14.25
2022-08-24T04:47:09.375Z,13.05
2022-08-24T04:52:32.219Z,12.18
2022-08-24T04:57:54.885Z,12.05
2022-08-24T05:03:17.939Z,11.93
2022-08-24T05:08:44.443Z,10.72
2022-08-24T05:14:07.920Z,10.53
2022-08-24T05:19:32.833Z,11.15
2022-08-24T05:24:56.989Z,12.35
2022-08-24T05:30:20.531Z,11.97
2022-08-24T05:35:45.833Z,11.28
2022-08-24T05:41:11.799Z,15.75
2022-08-24T05:46:37.191Z,11.57
2022-08-24T05:52:00.414Z,11.33
2022-08-24T05:57:24.306Z,13.90
2022-08-24T06:02:46.746Z,15.55
2022-08-24T06:08:09.367Z,15.43
2022-08-24T06:13:31.894Z,15.63
2022-08-24T06:18:55.552Z,16.75
2022-08-24T06:24:19.058Z,17.37
2022-08-24T06:29:41.385Z,19.00
2022-08-24T06:35:04.253Z,17.60
2022-08-24T06:40:27.093Z,18.45
2022-08-24T06:45:50.241Z,18.13
2022-08-24T06:51:21.216Z,19.23
2022-08-24T06:56:46.754Z,19.87
2022-08-24T07:02:11.259Z,20.55
2022-08-24T07:07:33.559Z,19.52
2022-08-24T07:12:56.558Z,21.12
2022-08-24T07:18:20.637Z,19.90
2022-08-24T07:23:45.057Z,20.55
2022-08-24T07:29:45.796Z,21.50
2022-08-24T07:34:39.967Z,22.40
2022-08-24T07:40:02.663Z,24.20
2022-08-24T07:45:27.250Z,23.45
2022-08-24T07:50:49.528Z,26.42
2022-08-24T07:56:13.063Z,27.87
2022-08-24T08:01:35.888Z,29.15
2022-08-24T08:07:02.164Z,30.35
2022-08-24T08:12:27.794Z,29.65
2022-08-24T08:17:56.095Z,27.65
2022-08-24T08:23:32.289Z,28.42
2022-08-24T08:28:54.822Z,29.72
2022-08-24T08:34:18.299Z,28.15
2022-08-24T08:39:41.189Z,26.75
2022-08-24T08:45:20.240Z,31.07
2022-08-24T08:51:06.739Z,32.30
2022-08-24T08:57:04.934Z,33.38
2022-08-24T09:02:45.590Z,28.27
2022-08-24T09:08:40.395Z,22.27
2022-08-24T09:14:56.160Z,19.93
2022-08-24T09:20:42.047Z,16.20
2022-08-24T09:26:27.606Z,15.13
2022-08-24T09:38:08.618Z,12.80
2022-08-24T09:43:41.572Z,12.40
2022-08-24T09:49:14.658Z,12.77
2022-08-24T09:54:57.637Z,11.40
2022-08-24T10:00:31.099Z,12.27
2022-08-24T10:06:22.351Z,11.30
2022-08-24T10:12:11.424Z,10.70
2022-08-24T10:17:51.301Z,10.90
2022-08-24T10:23:50.561Z,10.20
2022-08-24T10:29:51.695Z,10.00
2022-08-24T10:35:46.794Z,9.20
2022-08-24T10:41:43.177Z,8.95
2022-08-24T10:47:19.537Z,9.40
2022-08-24T10:52:52.706Z,8.00
2022-08-24T10:58:49.877Z,14.83
2022-08-24T11:04:19.501Z,7.97
2022-08-24T11:09:57.982Z,7.37
2022-08-24T11:15:33.090Z,6.87
2022-08-24T11:21:03.023Z,6.58
2022-08-24T11:26:34.603Z,7.05
2022-08-24T11:32:03.155Z,6.78
2022-08-24T11:37:31.399Z,7.13
2022-08-24T11:43:15.563Z,5.72
2022-08-24T11:48:57.750Z,6.30
2022-08-24T11:54:51.353Z,6.10
2022-08-24T12:00:34.787Z,13.88
2022-08-24T12:06:35.268Z,6.53
2022-08-24T12:12:14.442Z,6.37
2022-08-24T12:18:03.566Z,5.40
2022-08-24T12:23:39.614Z,5.87
2022-08-24T12:29:27.184Z,5.50
2022-08-24T12:35:10.471Z,5.10
2022-08-24T12:40:53.612Z,5.62
2022-08-24T12:46:19.327Z,6.33
2022-08-24T12:51:59.156Z,5.72
2022-08-24T12:58:30.997Z,4.23
2022-08-24T13:03:46.883Z,5.30
2022-08-24T13:14:40.020Z,5.35
2022-08-24T13:26:01.729Z,5.10
2022-08-24T13:31:44.584Z,5.20
2022-08-24T13:37:34.603Z,5.50
2022-08-24T13:43:16.328Z,4.97
2022-08-24T13:48:53.224Z,5.08
2022-08-24T14:01:04.232Z,5.50
2022-08-24T14:06:34.241Z,38.63
2022-08-24T14:12:06.582Z,6.53
2022-08-24T14:18:12.660Z,5.47
2022-08-24T14:23:56.617Z,6.43
2022-08-24T14:29:41.496Z,5.75
2022-08-24T14:35:11.575Z,5.90
2022-08-24T14:41:03.636Z,5.60
2022-08-24T14:46:40.434Z,5.20
2022-08-24T14:52:26.177Z,5.13
2022-08-24T14:58:25.482Z,5.10
2022-08-24T15:04:00.435Z,5.03
2022-08-24T15:09:39.070Z,5.78
2022-08-24T15:15:16.249Z,5.03
2022-08-24T15:21:03.973Z,5.60
2022-08-24T15:26:37.015Z,5.37
2022-08-24T15:32:11.964Z,5.20
2022-08-24T15:37:47.862Z,5.13
2022-08-24T15:43:12.826Z,5.60
2022-08-24T15:48:38.136Z,5.42
2022-08-24T15:54:01.066Z,5.90
2022-08-24T15:59:42.448Z,5.67
2022-08-24T16:05:27.939Z,5.33
2022-08-24T16:11:05.863Z,4.50
2022-08-24T16:16:41.381Z,4.53
2022-08-24T16:22:16.353Z,4.83
2022-08-24T16:27:58.766Z,4.47
2022-08-24T16:33:44.279Z,4.10
2022-08-24T16:39:06.442Z,4.25
2022-08-24T16:44:29.442Z,3.87
2022-08-24T16:49:51.893Z,3.95
2022-08-24T16:55:15.216Z,4.40
2022-08-24T17:00:38.374Z,4.20
2022-08-24T17:06:02.798Z,5.30
2022-08-24T17:11:28.123Z,5.40
2022-08-24T17:16:53.326Z,4.80
2022-08-24T17:22:17.890Z,5.58
2022-08-24T17:27:44.651Z,4.50
2022-08-24T17:33:07.056Z,5.08
2022-08-24T17:38:29.443Z,8.85
2022-08-24T17:43:52.308Z,5.62
2022-08-24T17:49:16.918Z,5.30
2022-08-24T17:54:40.426Z,5.30
2022-08-24T18:00:02.845Z,4.53
2022-08-24T18:05:26.249Z,5.60
2022-08-24T18:10:50.108Z,5.17
2022-08-24T18:16:13.083Z,5.10
2022-08-24T18:21:35.983Z,5.22
2022-08-24T18:26:59.748Z,4.50
2022-08-24T18:32:22.192Z,5.08
2022-08-24T18:37:44.404Z,5.28
2022-08-24T18:43:08.871Z,4.80
2022-08-24T18:48:31.478Z,6.03
2022-08-24T18:53:53.961Z,5.12
2022-08-24T18:59:20.706Z,5.08
2022-08-24T19:04:47.438Z,6.00
2022-08-24T19:10:12.129Z,5.33
2022-08-24T19:15:39.890Z,4.33
2022-08-24T19:21:03.926Z,4.95
2022-08-24T19:26:26.862Z,4.33
2022-08-24T19:31:50.949Z,4.10
2022-08-24T19:37:13.464Z,3.55
2022-08-24T19:42:36.609Z,3.30
2022-08-24T19:47:59.896Z,3.42
2022-08-24T19:53:26.940Z,3.50
2022-08-24T19:59:08.574Z,3.50
2022-08-24T20:04:31.403Z,3.67
2022-08-24T20:09:55.001Z,3.27
2022-08-24T20:15:18.517Z,3.40
2022-08-24T20:20:43.429Z,3.37
2022-08-24T20:26:06.260Z,3.67
2022-08-24T20:31:29.884Z,4.00
2022-08-24T20:37:00.495Z,4.12
2022-08-24T20:42:24.289Z,11.43
2022-08-24T20:47:48.441Z,4.37
2022-08-24T20:53:12.375Z,4.33
2022-08-24T20:58:36.491Z,3.83
2022-08-24T21:04:04.296Z,4.58
2022-08-24T21:09:24.947Z,4.62
2022-08-24T21:14:47.916Z,4.50
2022-08-24T21:20:12.855Z,4.75
2022-08-24T21:25:35.549Z,4.83
2022-08-24T21:31:00.483Z,4.83
2022-08-24T21:36:23.855Z,5.47
2022-08-24T21:41:47.180Z,4.90
2022-08-24T21:47:09.554Z,6.53
2022-08-24T21:52:31.997Z,5.85
2022-08-24T21:57:54.914Z,5.67
2022-08-24T22:03:19.195Z,4.80
2022-08-24T22:08:43.014Z,5.60
2022-08-24T22:14:08.126Z,5.22
2022-08-24T22:19:32.086Z,4.50
2022-08-24T22:24:55.328Z,5.22
2022-08-24T22:30:19.273Z,5.17
2022-08-24T22:35:45.243Z,5.10
2022-08-24T22:41:14.624Z,4.50
2022-08-24T22:46:38.281Z,4.77
2022-08-24T22:52:00.926Z,4.87
2022-08-24T22:57:23.163Z,4.75
2022-08-24T23:02:45.449Z,4.60
2022-08-24T23:08:07.912Z,4.83
2022-08-24T23:13:30.160Z,4.35
2022-08-24T23:19:10.483Z,4.47
2022-08-24T23:24:34.492Z,4.43
2022-08-24T23:29:57.838Z,5.30
2022-08-24T23:35:21.613Z,5.42
2022-08-24T23:40:45.539Z,6.35
2022-08-24T23:46:08.339Z,6.47
2022-08-24T23:51:34.339Z,7.15
2022-08-24T23:57:00.876Z,6.00
